Birmingham, Alabama
Current Conditions -  °F | °C
As of 1:53 PM on Saturday 25 Oct 2014 (Local Time) from KBHM Reporting Station
Clear Clear  
Wind Chill: 75°   Ceiling: Unl
Heat Index: 75°   Visibility: 10mi
Dew Point: 53°   Wind: 8mph
Humidity: 46%   Direction: 320°NW
Pressure: 30.09"   Gusts: NA
Location:  33.52°N, 86.81°W
Report Text: KBHM 251853Z 32007KT 10SM CLR 24/12 A3009 RMK AO2 SLP185 T02390117
Loading
Personal Weather Stations






























Interactive Weather Map New forecast layout! Learn more

10-Day Weather Forecast

Advertisements
Track Severe Weather on mobile